sensor_id;sensor_type;location;lat;lon;timestamp;P1;durP1;ratioP1;P2;durP2;ratioP2
64132;SDS011;53116;52.020;4.446;2022-09-01T00:02:19;1.35;;;0.70;;
64132;SDS011;53116;52.020;4.446;2022-09-01T00:04:45;1.05;;;0.70;;
64132;SDS011;53116;52.020;4.446;2022-09-01T00:07:12;2.10;;;0.90;;
64132;SDS011;53116;52.020;4.446;2022-09-01T00:09:39;1.13;;;0.70;;
64132;SDS011;53116;52.020;4.446;2022-09-01T00:12:06;1.85;;;0.90;;
64132;SDS011;53116;52.020;4.446;2022-09-01T00:14:35;2.45;;;0.70;;
64132;SDS011;53116;52.020;4.446;2022-09-01T00:17:05;1.25;;;0.80;;
64132;SDS011;53116;52.020;4.446;2022-09-01T00:19:35;2.00;;;0.90;;
64132;SDS011;53116;52.020;4.446;2022-09-01T00:22:02;0.85;;;0.68;;
64132;SDS011;53116;52.020;4.446;2022-09-01T00:24:29;0.90;;;0.70;;
64132;SDS011;53116;52.020;4.446;2022-09-01T00:26:55;1.13;;;0.85;;
64132;SDS011;53116;52.020;4.446;2022-09-01T00:29:22;1.58;;;0.90;;
64132;SDS011;53116;52.020;4.446;2022-09-01T00:31:48;1.73;;;0.82;;
64132;SDS011;53116;52.020;4.446;2022-09-01T00:34:15;2.25;;;0.90;;
64132;SDS011;53116;52.020;4.446;2022-09-01T00:36:42;1.70;;;0.82;;
64132;SDS011;53116;52.020;4.446;2022-09-01T00:39:08;2.20;;;0.70;;
64132;SDS011;53116;52.020;4.446;2022-09-01T00:41:35;2.80;;;0.73;;
64132;SDS011;53116;52.020;4.446;2022-09-01T00:44:04;2.08;;;0.70;;
64132;SDS011;53116;52.020;4.446;2022-09-01T00:46:37;2.28;;;0.90;;
64132;SDS011;53116;52.020;4.446;2022-09-01T00:49:09;1.60;;;0.88;;
64132;SDS011;53116;52.020;4.446;2022-09-01T00:51:45;1.23;;;0.80;;
64132;SDS011;53116;52.020;4.446;2022-09-01T00:54:15;1.38;;;0.70;;
64132;SDS011;53116;52.020;4.446;2022-09-01T00:56:45;2.20;;;0.80;;
64132;SDS011;53116;52.020;4.446;2022-09-01T00:59:12;1.75;;;0.80;;
64132;SDS011;53116;52.020;4.446;2022-09-01T01:01:40;2.17;;;0.90;;
64132;SDS011;53116;52.020;4.446;2022-09-01T01:04:07;1.52;;;0.80;;
64132;SDS011;53116;52.020;4.446;2022-09-01T01:06:40;0.93;;;0.70;;
64132;SDS011;53116;52.020;4.446;2022-09-01T01:09:08;1.60;;;0.88;;
64132;SDS011;53116;52.020;4.446;2022-09-01T01:11:34;1.60;;;0.70;;
64132;SDS011;53116;52.020;4.446;2022-09-01T01:14:02;2.60;;;1.10;;
64132;SDS011;53116;52.020;4.446;2022-09-01T01:16:34;1.50;;;1.00;;
64132;SDS011;53116;52.020;4.446;2022-09-01T01:19:00;1.55;;;1.02;;
64132;SDS011;53116;52.020;4.446;2022-09-01T01:21:38;1.52;;;0.90;;
64132;SDS011;53116;52.020;4.446;2022-09-01T01:24:27;1.35;;;0.80;;
64132;SDS011;53116;52.020;4.446;2022-09-01T01:26:56;2.28;;;1.00;;
64132;SDS011;53116;52.020;4.446;2022-09-01T01:29:24;1.80;;;0.88;;
64132;SDS011;53116;52.020;4.446;2022-09-01T01:31:58;1.58;;;1.00;;
64132;SDS011;53116;52.020;4.446;2022-09-01T01:34:24;1.75;;;0.70;;
64132;SDS011;53116;52.020;4.446;2022-09-01T01:36:50;1.75;;;1.02;;
64132;SDS011;53116;52.020;4.446;2022-09-01T01:39:17;1.75;;;0.75;;
64132;SDS011;53116;52.020;4.446;2022-09-01T01:41:49;7.80;;;0.90;;
64132;SDS011;53116;52.020;4.446;2022-09-01T01:44:19;0.80;;;0.70;;
64132;SDS011;53116;52.020;4.446;2022-09-01T01:46:50;1.95;;;0.85;;
64132;SDS011;53116;52.020;4.446;2022-09-01T01:49:21;1.08;;;0.70;;
64132;SDS011;53116;52.020;4.446;2022-09-01T01:51:51;1.27;;;0.70;;
64132;SDS011;53116;52.020;4.446;2022-09-01T01:54:20;1.15;;;0.77;;
64132;SDS011;53116;52.020;4.446;2022-09-01T01:56:48;1.17;;;0.80;;
64132;SDS011;53116;52.020;4.446;2022-09-01T01:59:14;1.58;;;0.77;;
64132;SDS011;53116;52.020;4.446;2022-09-01T02:01:43;2.47;;;0.82;;
64132;SDS011;53116;52.020;4.446;2022-09-01T02:04:16;1.48;;;0.90;;
64132;SDS011;53116;52.020;4.446;2022-09-01T02:06:45;2.22;;;0.82;;
64132;SDS011;53116;52.020;4.446;2022-09-01T02:09:15;1.58;;;0.90;;
64132;SDS011;53116;52.020;4.446;2022-09-01T02:11:44;0.90;;;0.77;;
64132;SDS011;53116;52.020;4.446;2022-09-01T02:14:10;2.10;;;0.80;;
64132;SDS011;53116;52.020;4.446;2022-09-01T02:16:37;2.17;;;0.80;;
64132;SDS011;53116;52.020;4.446;2022-09-01T02:19:04;1.65;;;0.90;;
64132;SDS011;53116;52.020;4.446;2022-09-01T02:21:32;1.38;;;0.80;;
64132;SDS011;53116;52.020;4.446;2022-09-01T02:23:59;1.85;;;0.90;;
64132;SDS011;53116;52.020;4.446;2022-09-01T02:26:34;1.48;;;0.90;;
64132;SDS011;53116;52.020;4.446;2022-09-01T02:29:13;1.25;;;0.90;;
64132;SDS011;53116;52.020;4.446;2022-09-01T02:31:48;1.42;;;0.80;;
64132;SDS011;53116;52.020;4.446;2022-09-01T02:34:16;1.48;;;0.65;;
64132;SDS011;53116;52.020;4.446;2022-09-01T02:36:44;2.30;;;0.98;;
64132;SDS011;53116;52.020;4.446;2022-09-01T02:39:14;1.08;;;0.70;;
64132;SDS011;53116;52.020;4.446;2022-09-01T02:41:47;1.00;;;0.65;;
64132;SDS011;53116;52.020;4.446;2022-09-01T02:44:13;2.00;;;0.65;;
64132;SDS011;53116;52.020;4.446;2022-09-01T02:46:39;0.90;;;0.77;;
64132;SDS011;53116;52.020;4.446;2022-09-01T02:49:14;2.20;;;0.77;;
64132;SDS011;53116;52.020;4.446;2022-09-01T02:51:47;1.48;;;0.60;;
64132;SDS011;53116;52.020;4.446;2022-09-01T02:54:18;0.95;;;0.70;;
64132;SDS011;53116;52.020;4.446;2022-09-01T02:56:47;0.82;;;0.70;;
64132;SDS011;53116;52.020;4.446;2022-09-01T02:59:14;1.50;;;0.70;;
64132;SDS011;53116;52.020;4.446;2022-09-01T03:01:40;2.60;;;0.85;;
64132;SDS011;53116;52.020;4.446;2022-09-01T03:04:09;2.17;;;0.90;;
64132;SDS011;53116;52.020;4.446;2022-09-01T03:06:35;1.80;;;0.77;;
64132;SDS011;53116;52.020;4.446;2022-09-01T03:09:06;1.85;;;0.80;;
64132;SDS011;53116;52.020;4.446;2022-09-01T03:11:35;2.15;;;0.90;;
64132;SDS011;53116;52.020;4.446;2022-09-01T03:14:03;0.85;;;0.82;;
64132;SDS011;53116;52.020;4.446;2022-09-01T03:16:30;1.42;;;0.90;;
64132;SDS011;53116;52.020;4.446;2022-09-01T03:18:57;1.85;;;0.98;;
64132;SDS011;53116;52.020;4.446;2022-09-01T03:21:23;1.67;;;0.90;;
64132;SDS011;53116;52.020;4.446;2022-09-01T03:23:50;2.05;;;0.73;;
64132;SDS011;53116;52.020;4.446;2022-09-01T03:26:17;2.78;;;1.00;;
64132;SDS011;53116;52.020;4.446;2022-09-01T03:28:46;1.65;;;0.90;;
64132;SDS011;53116;52.020;4.446;2022-09-01T03:31:14;2.35;;;0.75;;
64132;SDS011;53116;52.020;4.446;2022-09-01T03:33:42;1.48;;;0.80;;
64132;SDS011;53116;52.020;4.446;2022-09-01T03:36:07;1.10;;;0.70;;
64132;SDS011;53116;52.020;4.446;2022-09-01T03:38:46;1.37;;;0.77;;
64132;SDS011;53116;52.020;4.446;2022-09-01T03:41:14;1.13;;;0.70;;
64132;SDS011;53116;52.020;4.446;2022-09-01T03:43:41;2.70;;;0.75;;
64132;SDS011;53116;52.020;4.446;2022-09-01T03:46:07;1.05;;;0.70;;
64132;SDS011;53116;52.020;4.446;2022-09-01T03:48:35;0.90;;;0.70;;
64132;SDS011;53116;52.020;4.446;2022-09-01T03:51:00;1.65;;;0.70;;
64132;SDS011;53116;52.020;4.446;2022-09-01T03:53:31;1.60;;;0.90;;
64132;SDS011;53116;52.020;4.446;2022-09-01T03:56:01;2.17;;;1.02;;
64132;SDS011;53116;52.020;4.446;2022-09-01T03:58:29;4.47;;;1.10;;
64132;SDS011;53116;52.020;4.446;2022-09-01T04:00:56;2.60;;;1.30;;
64132;SDS011;53116;52.020;4.446;2022-09-01T04:03:26;3.35;;;1.50;;
64132;SDS011;53116;52.020;4.446;2022-09-01T04:05:53;2.25;;;1.20;;
64132;SDS011;53116;52.020;4.446;2022-09-01T04:08:19;3.67;;;1.50;;
64132;SDS011;53116;52.020;4.446;2022-09-01T04:10:49;4.03;;;1.55;;
64132;SDS011;53116;52.020;4.446;2022-09-01T04:13:17;3.72;;;1.55;;
64132;SDS011;53116;52.020;4.446;2022-09-01T04:15:46;3.90;;;1.63;;
64132;SDS011;53116;52.020;4.446;2022-09-01T04:18:12;2.85;;;1.38;;
64132;SDS011;53116;52.020;4.446;2022-09-01T04:20:54;4.97;;;1.70;;
64132;SDS011;53116;52.020;4.446;2022-09-01T04:23:31;4.95;;;1.50;;
64132;SDS011;53116;52.020;4.446;2022-09-01T04:25:59;2.42;;;1.50;;
64132;SDS011;53116;52.020;4.446;2022-09-01T04:28:41;6.35;;;1.60;;
64132;SDS011;53116;52.020;4.446;2022-09-01T04:31:11;3.03;;;1.50;;
64132;SDS011;53116;52.020;4.446;2022-09-01T04:33:42;3.28;;;1.35;;
64132;SDS011;53116;52.020;4.446;2022-09-01T04:36:18;4.43;;;1.80;;
64132;SDS011;53116;52.020;4.446;2022-09-01T04:38:48;6.03;;;1.70;;
64132;SDS011;53116;52.020;4.446;2022-09-01T04:41:22;3.67;;;1.60;;
64132;SDS011;53116;52.020;4.446;2022-09-01T04:43:50;5.32;;;1.90;;
64132;SDS011;53116;52.020;4.446;2022-09-01T04:46:17;4.30;;;1.65;;
64132;SDS011;53116;52.020;4.446;2022-09-01T04:48:45;4.65;;;1.50;;
64132;SDS011;53116;52.020;4.446;2022-09-01T04:51:11;3.83;;;1.70;;
64132;SDS011;53116;52.020;4.446;2022-09-01T04:53:39;2.42;;;1.65;;
64132;SDS011;53116;52.020;4.446;2022-09-01T04:56:13;3.97;;;1.50;;
64132;SDS011;53116;52.020;4.446;2022-09-01T04:58:45;5.18;;;1.80;;
64132;SDS011;53116;52.020;4.446;2022-09-01T05:01:12;5.88;;;1.60;;
64132;SDS011;53116;52.020;4.446;2022-09-01T05:03:39;4.82;;;2.10;;
64132;SDS011;53116;52.020;4.446;2022-09-01T05:06:04;4.37;;;2.00;;
64132;SDS011;53116;52.020;4.446;2022-09-01T05:08:37;4.43;;;1.55;;
64132;SDS011;53116;52.020;4.446;2022-09-01T05:11:04;4.05;;;2.28;;
64132;SDS011;53116;52.020;4.446;2022-09-01T05:13:32;3.83;;;1.80;;
64132;SDS011;53116;52.020;4.446;2022-09-01T05:16:00;3.42;;;1.75;;
64132;SDS011;53116;52.020;4.446;2022-09-01T05:18:30;3.60;;;1.60;;
64132;SDS011;53116;52.020;4.446;2022-09-01T05:20:56;4.22;;;1.90;;
64132;SDS011;53116;52.020;4.446;2022-09-01T05:23:22;2.88;;;1.70;;
64132;SDS011;53116;52.020;4.446;2022-09-01T05:25:50;3.45;;;1.60;;
64132;SDS011;53116;52.020;4.446;2022-09-01T05:28:19;2.60;;;1.60;;
64132;SDS011;53116;52.020;4.446;2022-09-01T05:30:49;3.97;;;1.50;;
64132;SDS011;53116;52.020;4.446;2022-09-01T05:33:18;5.40;;;1.98;;
64132;SDS011;53116;52.020;4.446;2022-09-01T05:35:52;4.03;;;1.75;;
64132;SDS011;53116;52.020;4.446;2022-09-01T05:38:20;3.33;;;1.80;;
64132;SDS011;53116;52.020;4.446;2022-09-01T05:40:53;2.45;;;1.73;;
64132;SDS011;53116;52.020;4.446;2022-09-01T05:43:26;5.10;;;1.75;;
64132;SDS011;53116;52.020;4.446;2022-09-01T05:45:53;3.20;;;2.15;;
64132;SDS011;53116;52.020;4.446;2022-09-01T05:48:20;6.68;;;1.95;;
64132;SDS011;53116;52.020;4.446;2022-09-01T05:50:47;4.60;;;2.13;;
64132;SDS011;53116;52.020;4.446;2022-09-01T05:53:14;4.20;;;1.75;;
64132;SDS011;53116;52.020;4.446;2022-09-01T05:55:42;9.93;;;2.25;;
64132;SDS011;53116;52.020;4.446;2022-09-01T05:58:13;6.50;;;2.08;;
64132;SDS011;53116;52.020;4.446;2022-09-01T06:00:41;4.20;;;1.98;;
64132;SDS011;53116;52.020;4.446;2022-09-01T06:03:12;4.45;;;2.10;;
64132;SDS011;53116;52.020;4.446;2022-09-01T06:05:38;4.07;;;2.00;;
64132;SDS011;53116;52.020;4.446;2022-09-01T06:08:05;4.57;;;1.92;;
64132;SDS011;53116;52.020;4.446;2022-09-01T06:10:37;4.03;;;1.67;;
64132;SDS011;53116;52.020;4.446;2022-09-01T06:13:07;6.95;;;2.03;;
64132;SDS011;53116;52.020;4.446;2022-09-01T06:15:35;4.55;;;2.13;;
64132;SDS011;53116;52.020;4.446;2022-09-01T06:18:04;4.72;;;1.77;;
64132;SDS011;53116;52.020;4.446;2022-09-01T06:20:31;7.55;;;1.70;;
64132;SDS011;53116;52.020;4.446;2022-09-01T06:22:57;5.15;;;2.00;;
64132;SDS011;53116;52.020;4.446;2022-09-01T06:25:22;3.88;;;2.10;;
64132;SDS011;53116;52.020;4.446;2022-09-01T06:27:55;3.50;;;1.95;;
64132;SDS011;53116;52.020;4.446;2022-09-01T06:30:21;3.97;;;1.38;;
64132;SDS011;53116;52.020;4.446;2022-09-01T06:32:51;3.85;;;1.67;;
64132;SDS011;53116;52.020;4.446;2022-09-01T06:35:17;4.25;;;1.73;;
64132;SDS011;53116;52.020;4.446;2022-09-01T06:37:43;2.40;;;1.40;;
64132;SDS011;53116;52.020;4.446;2022-09-01T06:40:14;3.72;;;1.50;;
64132;SDS011;53116;52.020;4.446;2022-09-01T06:42:44;3.97;;;1.40;;
64132;SDS011;53116;52.020;4.446;2022-09-01T06:45:14;2.30;;;1.20;;
64132;SDS011;53116;52.020;4.446;2022-09-01T06:47:41;3.00;;;1.50;;
64132;SDS011;53116;52.020;4.446;2022-09-01T06:50:12;2.35;;;1.17;;
64132;SDS011;53116;52.020;4.446;2022-09-01T06:52:43;2.17;;;1.27;;
64132;SDS011;53116;52.020;4.446;2022-09-01T06:55:09;3.08;;;1.30;;
64132;SDS011;53116;52.020;4.446;2022-09-01T06:57:36;3.85;;;1.40;;
64132;SDS011;53116;52.020;4.446;2022-09-01T07:00:04;3.45;;;1.30;;
64132;SDS011;53116;52.020;4.446;2022-09-01T07:02:41;3.22;;;1.65;;
64132;SDS011;53116;52.020;4.446;2022-09-01T07:05:10;2.55;;;1.05;;
64132;SDS011;53116;52.020;4.446;2022-09-01T07:07:45;3.65;;;1.60;;
64132;SDS011;53116;52.020;4.446;2022-09-01T07:10:14;3.03;;;1.70;;
64132;SDS011;53116;52.020;4.446;2022-09-01T07:12:44;3.42;;;1.60;;
64132;SDS011;53116;52.020;4.446;2022-09-01T07:15:12;4.93;;;1.73;;
64132;SDS011;53116;52.020;4.446;2022-09-01T07:17:51;6.32;;;1.60;;
64132;SDS011;53116;52.020;4.446;2022-09-01T07:20:20;3.92;;;1.63;;
64132;SDS011;53116;52.020;4.446;2022-09-01T07:22:51;3.47;;;2.08;;
64132;SDS011;53116;52.020;4.446;2022-09-01T07:25:18;6.32;;;1.90;;
64132;SDS011;53116;52.020;4.446;2022-09-01T07:27:44;4.47;;;1.77;;
64132;SDS011;53116;52.020;4.446;2022-09-01T07:30:18;3.92;;;2.03;;
64132;SDS011;53116;52.020;4.446;2022-09-01T07:32:45;2.15;;;1.73;;
64132;SDS011;53116;52.020;4.446;2022-09-01T07:35:15;4.72;;;1.80;;
64132;SDS011;53116;52.020;4.446;2022-09-01T07:37:46;3.38;;;1.65;;
64132;SDS011;53116;52.020;4.446;2022-09-01T07:40:14;4.38;;;1.70;;
64132;SDS011;53116;52.020;4.446;2022-09-01T07:42:44;4.80;;;1.80;;
64132;SDS011;53116;52.020;4.446;2022-09-01T07:45:12;3.83;;;1.80;;
64132;SDS011;53116;52.020;4.446;2022-09-01T07:47:39;4.35;;;1.90;;
64132;SDS011;53116;52.020;4.446;2022-09-01T07:50:05;3.28;;;1.77;;
64132;SDS011;53116;52.020;4.446;2022-09-01T07:52:35;3.47;;;1.92;;
64132;SDS011;53116;52.020;4.446;2022-09-01T07:55:10;3.50;;;1.70;;
64132;SDS011;53116;52.020;4.446;2022-09-01T07:57:38;5.50;;;2.20;;
64132;SDS011;53116;52.020;4.446;2022-09-01T08:00:10;5.40;;;2.22;;
64132;SDS011;53116;52.020;4.446;2022-09-01T08:02:40;5.07;;;1.70;;
64132;SDS011;53116;52.020;4.446;2022-09-01T08:05:12;8.30;;;2.15;;
64132;SDS011;53116;52.020;4.446;2022-09-01T08:07:42;3.65;;;1.92;;
64132;SDS011;53116;52.020;4.446;2022-09-01T08:10:11;6.13;;;1.98;;
64132;SDS011;53116;52.020;4.446;2022-09-01T08:12:37;6.15;;;2.15;;
64132;SDS011;53116;52.020;4.446;2022-09-01T08:15:04;5.75;;;2.20;;
64132;SDS011;53116;52.020;4.446;2022-09-01T08:17:32;3.72;;;2.08;;
64132;SDS011;53116;52.020;4.446;2022-09-01T08:19:58;9.40;;;1.90;;
64132;SDS011;53116;52.020;4.446;2022-09-01T08:22:23;4.75;;;2.00;;
64132;SDS011;53116;52.020;4.446;2022-09-01T08:24:52;3.75;;;1.70;;
64132;SDS011;53116;52.020;4.446;2022-09-01T08:27:18;4.20;;;2.05;;
64132;SDS011;53116;52.020;4.446;2022-09-01T08:29:44;5.90;;;2.00;;
64132;SDS011;53116;52.020;4.446;2022-09-01T08:32:11;3.42;;;1.90;;
64132;SDS011;53116;52.020;4.446;2022-09-01T08:34:37;7.68;;;1.80;;
64132;SDS011;53116;52.020;4.446;2022-09-01T08:37:04;5.53;;;1.90;;
64132;SDS011;53116;52.020;4.446;2022-09-01T08:39:29;5.50;;;1.80;;
64132;SDS011;53116;52.020;4.446;2022-09-01T08:44:53;4.45;;;1.77;;
64132;SDS011;53116;52.020;4.446;2022-09-01T08:47:34;3.75;;;1.95;;
64132;SDS011;53116;52.020;4.446;2022-09-01T08:50:01;8.48;;;1.80;;
64132;SDS011;53116;52.020;4.446;2022-09-01T08:55:01;2.85;;;1.83;;
64132;SDS011;53116;52.020;4.446;2022-09-01T08:57:36;7.22;;;2.30;;
64132;SDS011;53116;52.020;4.446;2022-09-01T09:00:06;7.97;;;1.95;;
64132;SDS011;53116;52.020;4.446;2022-09-01T09:05:53;6.78;;;2.05;;
64132;SDS011;53116;52.020;4.446;2022-09-01T09:08:25;4.38;;;1.92;;
64132;SDS011;53116;52.020;4.446;2022-09-01T09:11:19;3.17;;;1.73;;
64132;SDS011;53116;52.020;4.446;2022-09-01T09:16:52;2.28;;;1.42;;
64132;SDS011;53116;52.020;4.446;2022-09-01T09:21:53;6.25;;;1.83;;
64132;SDS011;53116;52.020;4.446;2022-09-01T09:27:10;6.57;;;2.30;;
64132;SDS011;53116;52.020;4.446;2022-09-01T09:29:42;5.88;;;1.90;;
64132;SDS011;53116;52.020;4.446;2022-09-01T09:32:08;7.18;;;2.38;;
64132;SDS011;53116;52.020;4.446;2022-09-01T09:34:38;3.63;;;2.20;;
64132;SDS011;53116;52.020;4.446;2022-09-01T09:39:55;4.35;;;2.22;;
64132;SDS011;53116;52.020;4.446;2022-09-01T09:42:29;4.53;;;2.10;;
64132;SDS011;53116;52.020;4.446;2022-09-01T09:44:55;7.47;;;1.83;;
64132;SDS011;53116;52.020;4.446;2022-09-01T09:47:38;3.97;;;1.83;;
64132;SDS011;53116;52.020;4.446;2022-09-01T09:53:08;4.10;;;2.20;;
64132;SDS011;53116;52.020;4.446;2022-09-01T09:55:34;3.65;;;2.10;;
64132;SDS011;53116;52.020;4.446;2022-09-01T09:58:01;5.07;;;1.90;;
64132;SDS011;53116;52.020;4.446;2022-09-01T10:00:36;5.90;;;2.30;;
64132;SDS011;53116;52.020;4.446;2022-09-01T10:03:05;5.43;;;2.17;;
64132;SDS011;53116;52.020;4.446;2022-09-01T10:08:02;10.50;;;2.70;;
64132;SDS011;53116;52.020;4.446;2022-09-01T10:13:25;5.93;;;1.98;;
64132;SDS011;53116;52.020;4.446;2022-09-01T10:15:55;2.90;;;2.00;;
64132;SDS011;53116;52.020;4.446;2022-09-01T10:18:24;5.28;;;1.80;;
64132;SDS011;53116;52.020;4.446;2022-09-01T10:21:00;4.53;;;1.70;;
64132;SDS011;53116;52.020;4.446;2022-09-01T10:23:32;4.15;;;1.63;;
64132;SDS011;53116;52.020;4.446;2022-09-01T10:26:12;2.88;;;1.67;;
64132;SDS011;53116;52.020;4.446;2022-09-01T10:31:23;3.92;;;1.40;;
64132;SDS011;53116;52.020;4.446;2022-09-01T10:33:50;3.92;;;1.50;;
64132;SDS011;53116;52.020;4.446;2022-09-01T10:36:16;3.15;;;1.17;;
64132;SDS011;53116;52.020;4.446;2022-09-01T10:38:43;7.70;;;1.60;;
64132;SDS011;53116;52.020;4.446;2022-09-01T10:41:12;1.75;;;1.35;;
64132;SDS011;53116;52.020;4.446;2022-09-01T10:44:34;5.15;;;1.40;;
64132;SDS011;53116;52.020;4.446;2022-09-01T10:47:07;2.28;;;1.20;;
64132;SDS011;53116;52.020;4.446;2022-09-01T10:52:12;6.18;;;1.30;;
64132;SDS011;53116;52.020;4.446;2022-09-01T10:55:13;4.35;;;1.45;;
64132;SDS011;53116;52.020;4.446;2022-09-01T11:02:44;2.20;;;1.17;;
64132;SDS011;53116;52.020;4.446;2022-09-01T11:05:57;2.45;;;1.33;;
64132;SDS011;53116;52.020;4.446;2022-09-01T11:11:00;6.68;;;1.55;;
64132;SDS011;53116;52.020;4.446;2022-09-01T11:13:47;4.47;;;1.20;;
64132;SDS011;53116;52.020;4.446;2022-09-01T11:18:55;5.05;;;1.25;;
64132;SDS011;53116;52.020;4.446;2022-09-01T11:21:55;3.70;;;1.30;;
64132;SDS011;53116;52.020;4.446;2022-09-01T11:27:10;3.83;;;1.20;;
64132;SDS011;53116;52.020;4.446;2022-09-01T11:29:56;4.68;;;1.20;;
64132;SDS011;53116;52.020;4.446;2022-09-01T11:32:31;2.60;;;1.10;;
64132;SDS011;53116;52.020;4.446;2022-09-01T11:35:03;1.60;;;1.08;;
64132;SDS011;53116;52.020;4.446;2022-09-01T11:37:37;2.97;;;1.20;;
64132;SDS011;53116;52.020;4.446;2022-09-01T11:40:05;4.10;;;1.35;;
64132;SDS011;53116;52.020;4.446;2022-09-01T11:45:04;2.53;;;1.10;;
64132;SDS011;53116;52.020;4.446;2022-09-01T11:47:39;2.92;;;1.30;;
64132;SDS011;53116;52.020;4.446;2022-09-01T11:52:51;8.35;;;1.30;;
64132;SDS011;53116;52.020;4.446;2022-09-01T11:55:29;2.08;;;1.20;;
64132;SDS011;53116;52.020;4.446;2022-09-01T11:58:09;2.40;;;1.17;;
64132;SDS011;53116;52.020;4.446;2022-09-01T12:00:38;2.88;;;1.17;;
64132;SDS011;53116;52.020;4.446;2022-09-01T12:03:17;3.00;;;1.20;;
64132;SDS011;53116;52.020;4.446;2022-09-01T12:05:43;3.45;;;1.00;;
64132;SDS011;53116;52.020;4.446;2022-09-01T12:08:15;4.18;;;1.40;;
64132;SDS011;53116;52.020;4.446;2022-09-01T12:10:44;5.85;;;1.10;;
64132;SDS011;53116;52.020;4.446;2022-09-01T12:13:11;7.95;;;1.70;;
64132;SDS011;53116;52.020;4.446;2022-09-01T12:15:50;1.75;;;1.10;;
64132;SDS011;53116;52.020;4.446;2022-09-01T12:20:50;2.25;;;1.10;;
64132;SDS011;53116;52.020;4.446;2022-09-01T12:23:28;2.80;;;1.02;;
64132;SDS011;53116;52.020;4.446;2022-09-01T12:26:00;3.42;;;1.40;;
64132;SDS011;53116;52.020;4.446;2022-09-01T12:28:29;2.42;;;1.27;;
64132;SDS011;53116;52.020;4.446;2022-09-01T12:30:58;5.68;;;1.13;;
64132;SDS011;53116;52.020;4.446;2022-09-01T12:33:25;2.95;;;1.08;;
64132;SDS011;53116;52.020;4.446;2022-09-01T12:36:11;1.58;;;1.08;;
64132;SDS011;53116;52.020;4.446;2022-09-01T12:39:19;7.05;;;1.20;;
64132;SDS011;53116;52.020;4.446;2022-09-01T12:42:01;1.95;;;1.13;;
64132;SDS011;53116;52.020;4.446;2022-09-01T12:44:32;2.20;;;1.10;;
64132;SDS011;53116;52.020;4.446;2022-09-01T12:47:10;3.55;;;1.30;;
64132;SDS011;53116;52.020;4.446;2022-09-01T12:49:51;1.75;;;1.00;;
64132;SDS011;53116;52.020;4.446;2022-09-01T12:57:35;1.77;;;1.00;;
64132;SDS011;53116;52.020;4.446;2022-09-01T13:00:07;2.95;;;1.00;;
64132;SDS011;53116;52.020;4.446;2022-09-01T13:08:08;2.35;;;1.02;;
64132;SDS011;53116;52.020;4.446;2022-09-01T13:10:40;2.63;;;0.80;;
64132;SDS011;53116;52.020;4.446;2022-09-01T13:13:10;3.70;;;1.00;;
64132;SDS011;53116;52.020;4.446;2022-09-01T13:15:38;1.17;;;0.90;;
64132;SDS011;53116;52.020;4.446;2022-09-01T13:18:07;1.10;;;0.90;;
64132;SDS011;53116;52.020;4.446;2022-09-01T13:20:33;2.03;;;1.02;;
64132;SDS011;53116;52.020;4.446;2022-09-01T13:23:00;1.17;;;0.80;;
64132;SDS011;53116;52.020;4.446;2022-09-01T13:25:27;1.73;;;0.95;;
64132;SDS011;53116;52.020;4.446;2022-09-01T13:27:53;1.75;;;0.90;;
64132;SDS011;53116;52.020;4.446;2022-09-01T13:30:21;1.15;;;0.90;;
64132;SDS011;53116;52.020;4.446;2022-09-01T13:32:49;1.77;;;1.00;;
64132;SDS011;53116;52.020;4.446;2022-09-01T13:35:16;2.25;;;1.17;;
64132;SDS011;53116;52.020;4.446;2022-09-01T13:37:44;2.97;;;1.00;;
64132;SDS011;53116;52.020;4.446;2022-09-01T13:40:10;0.85;;;0.75;;
64132;SDS011;53116;52.020;4.446;2022-09-01T13:43:01;2.35;;;0.95;;
64132;SDS011;53116;52.020;4.446;2022-09-01T13:45:28;2.28;;;0.93;;
64132;SDS011;53116;52.020;4.446;2022-09-01T13:47:54;1.77;;;0.90;;
64132;SDS011;53116;52.020;4.446;2022-09-01T13:50:21;3.13;;;0.90;;
64132;SDS011;53116;52.020;4.446;2022-09-01T13:52:51;1.60;;;0.80;;
64132;SDS011;53116;52.020;4.446;2022-09-01T13:55:24;0.90;;;0.88;;
64132;SDS011;53116;52.020;4.446;2022-09-01T13:57:53;2.53;;;0.95;;
64132;SDS011;53116;52.020;4.446;2022-09-01T14:00:20;3.78;;;1.30;;
64132;SDS011;53116;52.020;4.446;2022-09-01T14:02:56;2.00;;;1.00;;
64132;SDS011;53116;52.020;4.446;2022-09-01T14:05:27;2.35;;;0.93;;
64132;SDS011;53116;52.020;4.446;2022-09-01T14:07:55;2.45;;;0.95;;
64132;SDS011;53116;52.020;4.446;2022-09-01T14:10:21;1.60;;;0.82;;
64132;SDS011;53116;52.020;4.446;2022-09-01T14:12:48;0.93;;;0.85;;
64132;SDS011;53116;52.020;4.446;2022-09-01T14:15:14;1.30;;;0.90;;
64132;SDS011;53116;52.020;4.446;2022-09-01T14:17:42;3.85;;;1.10;;
64132;SDS011;53116;52.020;4.446;2022-09-01T14:20:10;2.15;;;0.80;;
64132;SDS011;53116;52.020;4.446;2022-09-01T14:22:39;2.83;;;1.00;;
64132;SDS011;53116;52.020;4.446;2022-09-01T14:25:05;1.48;;;0.90;;
64132;SDS011;53116;52.020;4.446;2022-09-01T14:27:33;1.83;;;0.85;;
64132;SDS011;53116;52.020;4.446;2022-09-01T14:29:59;2.10;;;0.90;;
64132;SDS011;53116;52.020;4.446;2022-09-01T14:32:25;1.35;;;0.90;;
64132;SDS011;53116;52.020;4.446;2022-09-01T14:34:55;2.03;;;1.00;;
64132;SDS011;53116;52.020;4.446;2022-09-01T14:37:20;1.92;;;0.80;;
64132;SDS011;53116;52.020;4.446;2022-09-01T14:39:54;2.47;;;0.95;;
64132;SDS011;53116;52.020;4.446;2022-09-01T14:42:21;4.38;;;1.05;;
64132;SDS011;53116;52.020;4.446;2022-09-01T14:44:49;2.17;;;1.00;;
64132;SDS011;53116;52.020;4.446;2022-09-01T14:47:15;0.98;;;0.80;;
64132;SDS011;53116;52.020;4.446;2022-09-01T14:49:41;2.40;;;1.00;;
64132;SDS011;53116;52.020;4.446;2022-09-01T14:52:07;2.63;;;0.90;;
64132;SDS011;53116;52.020;4.446;2022-09-01T14:54:34;1.95;;;0.90;;
64132;SDS011;53116;52.020;4.446;2022-09-01T14:57:01;2.60;;;0.80;;
64132;SDS011;53116;52.020;4.446;2022-09-01T14:59:27;2.55;;;0.80;;
64132;SDS011;53116;52.020;4.446;2022-09-01T15:01:53;1.90;;;0.80;;
64132;SDS011;53116;52.020;4.446;2022-09-01T15:04:19;1.35;;;1.00;;
64132;SDS011;53116;52.020;4.446;2022-09-01T15:06:44;2.85;;;1.02;;
64132;SDS011;53116;52.020;4.446;2022-09-01T15:09:10;2.72;;;0.95;;
64132;SDS011;53116;52.020;4.446;2022-09-01T15:11:37;2.08;;;0.90;;
64132;SDS011;53116;52.020;4.446;2022-09-01T15:14:04;1.92;;;0.80;;
64132;SDS011;53116;52.020;4.446;2022-09-01T15:16:30;4.03;;;1.10;;
64132;SDS011;53116;52.020;4.446;2022-09-01T15:18:59;1.52;;;0.70;;
64132;SDS011;53116;52.020;4.446;2022-09-01T15:21:26;2.38;;;0.85;;
64132;SDS011;53116;52.020;4.446;2022-09-01T15:23:56;5.22;;;0.85;;
64132;SDS011;53116;52.020;4.446;2022-09-01T15:26:21;1.83;;;0.75;;
64132;SDS011;53116;52.020;4.446;2022-09-01T15:28:48;1.00;;;0.80;;
64132;SDS011;53116;52.020;4.446;2022-09-01T15:31:14;1.38;;;0.65;;
64132;SDS011;53116;52.020;4.446;2022-09-01T15:33:42;2.90;;;0.77;;
64132;SDS011;53116;52.020;4.446;2022-09-01T15:36:12;2.22;;;1.00;;
64132;SDS011;53116;52.020;4.446;2022-09-01T15:38:40;1.77;;;0.60;;
64132;SDS011;53116;52.020;4.446;2022-09-01T15:41:06;1.52;;;0.90;;
64132;SDS011;53116;52.020;4.446;2022-09-01T15:43:32;1.02;;;0.60;;
64132;SDS011;53116;52.020;4.446;2022-09-01T15:45:58;3.22;;;1.00;;
64132;SDS011;53116;52.020;4.446;2022-09-01T15:48:26;1.05;;;0.80;;
64132;SDS011;53116;52.020;4.446;2022-09-01T15:50:52;2.50;;;0.70;;
64132;SDS011;53116;52.020;4.446;2022-09-01T15:53:18;0.85;;;0.80;;
64132;SDS011;53116;52.020;4.446;2022-09-01T15:55:45;1.55;;;0.70;;
64132;SDS011;53116;52.020;4.446;2022-09-01T15:58:14;1.10;;;0.80;;
64132;SDS011;53116;52.020;4.446;2022-09-01T16:00:42;1.35;;;0.85;;
64132;SDS011;53116;52.020;4.446;2022-09-01T16:03:09;2.50;;;0.73;;
64132;SDS011;53116;52.020;4.446;2022-09-01T16:05:36;0.90;;;0.70;;
64132;SDS011;53116;52.020;4.446;2022-09-01T16:08:03;0.90;;;0.70;;
64132;SDS011;53116;52.020;4.446;2022-09-01T16:10:34;1.17;;;0.80;;